Nearby METAR Reports

 

KCMH - Columbus, Ohio, USA
Distance from station: SW 5mi, 8km
Updated: Sat, 23-Jun-2018 3:51am EDT
Overcast
Overcast
 Wind from S
Wind: S 9 mph , 15 km/h
Temperature: 70°F , 21°C
Dew Point: 64°F , 18°C
Humidity: 83%
Barometer: 29.70 inHg , 1005.8 hPa
Clouds: Overcast
Visibility: 10 miles , 16 km
Cloud details: Mostly cloudy 900 ft
Overcast 2000 ft
2018/06/23 07:51 KCMH 230751Z 19008KT 10SM BKN009 OVC020 21/18 A2970 RMK AO2 SLP049 T02060183 $
KOSU - Columbus/St Univ, Ohio, USA
Distance from station: W 14mi, 23km
Updated: Sat, 23-Jun-2018 4:16am EDT
Overcast
Overcast
 Wind from S
Wind: S 9 mph , 15 km/h
Temperature: 68°F , 20°C
Dew Point: 64°F , 18°C
Humidity: 88%
Barometer: 29.70 inHg , 1005.8 hPa
Clouds: Overcast
Visibility: 10 miles , 16 km
Cloud details: Overcast 1100 ft
2018/06/23 08:16 KOSU 230816Z AUTO 18008KT 10SM OVC011 20/18 A2970 RMK AO2 T02000183
 
KLCK - Rickenbacker Ang, Ohio, USA
Distance from station: SSW 17mi, 27km
Updated: Sat, 23-Jun-2018 4:15am EDT
Overcast
Overcast
 Wind from S
Wind: S 10 mph , 17 km/h
Temperature: 66°F , 19°C
Dew Point: 66°F , 19°C
Humidity: 100%
Barometer: 29.71 inHg , 1006.1 hPa
Clouds: Overcast
Visibility: 10 miles , 16 km
Cloud details: Mostly cloudy 900 ft
Overcast 1300 ft
2018/06/23 08:15 KLCK 230815Z AUTO 19009KT 10SM BKN009 OVC013 19/19 A2971 RMK AO2 T01920193
KVTA - Newark, Ohio, USA
Distance from station: E 19mi, 30km
Updated: Sat, 23-Jun-2018 4:12am EDT
Light rain, Overcast
Light rain, Overcast
 Wind from S
Wind: S 6 mph , 9 km/h
Temperature: 68°F , 20°C
Dew Point: 66°F , 19°C
Humidity: 94%
Barometer: 29.71 inHg , 1006.1 hPa
Summary: Light rain
Clouds: Overcast
Visibility: 10 miles , 16 km
Cloud details: Overcast 1000 ft
2018/06/23 08:12 KVTA 230812Z AUTO 19005KT 10SM -RA OVC010 20/19 A2971 RMK AO2 CIG 006V013 P0000 T02000189
 
KTZR - Columbus/Bolton, Ohio, USA
Distance from station: WSW 20mi, 31km
Updated: Sat, 23-Jun-2018 4:15am EDT
Overcast
Overcast
 Wind from SSW
Wind: SSW 15 mph , 24 km/h
Temperature: 68°F , 20°C
Dew Point: 66°F , 19°C
Humidity: 94%
Barometer: 29.71 inHg , 1006.1 hPa
Clouds: Overcast
Visibility: 10 miles , 16 km
Cloud details: Partly cloudy 900 ft
Overcast 1400 ft
2018/06/23 08:15 KTZR 230815Z AUTO 20013KT 10SM SCT009 OVC014 20/19 A2971 RMK AO2 T01950187
KLHQ - Lancaster, Ohio, USA
Distance from station: SSE 22mi, 36km
Updated: Sat, 23-Jun-2018 4:11am EDT
Overcast
Overcast
 Wind from S
Wind: S 7 mph , 11 km/h
Temperature: 68°F , 20°C
Dew Point: 66°F , 19°C
Humidity: 94%
Barometer: 29.72 inHg , 1006.4 hPa
Clouds: Overcast
Visibility: 10 miles , 16 km
Cloud details: Mostly cloudy 1100 ft
Overcast 1800 ft
2018/06/23 08:11 KLHQ 230811Z AUTO 19006KT 10SM BKN011 OVC018 20/19 A2972 RMK AO2 T02000189
 
KDLZ - Delaware, Ohio, USA
Distance from station: NW 23mi, 36km
Updated: Sat, 23-Jun-2018 4:15am EDT
Overcast
Overcast
 Wind from S
Wind: S 7 mph , 11 km/h
Temperature: 68°F , 20°C
Dew Point: 64°F , 18°C
Humidity: 88%
Barometer: 29.70 inHg , 1005.8 hPa
Clouds: Overcast
Visibility: 10 miles , 16 km
Cloud details: Overcast 1000 ft
2018/06/23 08:15 KDLZ 230815Z AUTO 18006KT 10SM OVC010 20/18 A2970 RMK AO2
K4I3 - Mt Vernon/Knox, Ohio, USA
Distance from station: NE 25mi, 40km
Updated: Sat, 23-Jun-2018 4:15am EDT
Overcast
Overcast
 Wind from SSE
Wind: SSE 5 mph , 7 km/h
Temperature: 66°F , 19°C
Dew Point: 66°F , 19°C
Humidity: 100%
Barometer: 29.73 inHg , 1006.8 hPa
Clouds: Overcast
Visibility: 10 miles , 16 km
Cloud details: Overcast 900 ft
2018/06/23 08:15 K4I3 230815Z AUTO 16004KT 10SM OVC009 19/19 A2973 RMK AO2
 
KMRT - Marysville, Ohio, USA
Distance from station: WNW 30mi, 49km
Updated: Sat, 23-Jun-2018 4:15am EDT
Overcast
Overcast
 Wind from SSW
Wind: SSW 8 mph , 13 km/h
Temperature: 68°F , 20°C
Dew Point: 66°F , 19°C
Humidity: 94%
Barometer: 29.69 inHg , 1005.4 hPa
Clouds: Overcast
Visibility: 7 miles , 11 km
Cloud details: Mostly cloudy 900 ft
Overcast 1600 ft
2018/06/23 08:15 KMRT 230815Z AUTO 20007KT 7SM BKN009 OVC016 20/19 A2969 RMK AO2 T01980186
KMNN - Marion, Ohio, USA
Distance from station: NNW 41mi, 67km
Updated: Sat, 23-Jun-2018 3:53am EDT
Overcast
Overcast
 Wind from S
Wind: S 7 mph , 11 km/h
Temperature: 68°F , 20°C
Dew Point: 64°F , 18°C
Humidity: 88%
Barometer: 29.69 inHg , 1005.4 hPa
Clouds: Overcast
Visibility: 10 miles , 16 km
Cloud details: Mostly cloudy 1300 ft
Overcast 1800 ft
2018/06/23 07:53 KMNN 230753Z AUTO 17006KT 10SM BKN013 OVC018 20/18 A2969 RMK AO2 SLP048 T02000183 $
 
KZZV - Zanesville, Ohio, USA
Distance from station: E 49mi, 79km
Updated: Sat, 23-Jun-2018 4:14am EDT
Overcast
Overcast
 Wind from S
Wind: S 6 mph , 9 km/h
Temperature: 66°F , 19°C
Dew Point: 64°F , 18°C
Humidity: 94%
Barometer: 29.73 inHg , 1006.8 hPa
Clouds: Overcast
Visibility: 10 miles , 16 km
Cloud details: Mostly cloudy 900 ft
Overcast 5500 ft
2018/06/23 08:14 KZZV 230814Z AUTO 19005KT 10SM BKN009 OVC055 19/18 A2973 RMK AO2 T01940178 $